This is the latest recevied weather packets stored in our database for station/object KMASWX. If no packets are shown the sender has not sent any weather packets the latest 10 day(s).
| Time | Temp. | Humidity | Pressure | Rain* | Wind** | Luminosity | Snow |
|---|---|---|---|---|---|---|---|
| 1778046559 | 16.67° C | 43% | - | 0 mm | - | - | - |
| 1778045947 | 17.78° C | 42% | - | 0 mm | - | - | - |
| 1778045641 | 17.78° C | 42% | - | 0 mm | - | - | - |
| 1778045337 | 17.22° C | 42% | - | 0 mm | - | - | - |
| 1778045033 | 17.22° C | 42% | - | 0 mm | - | - | - |
| 1778044423 | 17.78° C | 41% | - | 0 mm | - | - | - |
| 1778044119 | 18.33° C | 40% | - | 0 mm | - | - | - |
| 1778043815 | 18.89° C | 39% | - | 0 mm | - | - | - |
| 1778043511 | 19.44° C | 38% | - | 0 mm | - | - | - |
| 1778043207 | 19.44° C | 37% | - | 0 mm | - | - | - |
| 1778042904 | 19.44° C | 37% | - | 0 mm | - | - | - |
| 1778042599 | 19.44° C | 38% | - | 0 mm | - | - | - |
| 1778042293 | 19.44° C | 38% | - | 0 mm | - | - | - |
| 1778041685 | 21.11° C | 34% | - | 0 mm | - | - | - |
| 1778041382 | 21.67° C | 32% | - | 0 mm | - | - | - |
| 1778040771 | 21.67° C | 33% | - | 0 mm | - | - | - |
| 1778040468 | 21.67° C | 32% | - | 0 mm | - | - | - |
| 1778040164 | 22.22° C | 31% | - | 0 mm | - | - | - |
| 1778039858 | 21.67° C | 31% | - | 0 mm | - | - | - |
| 1778039550 | 21.11° C | 32% | - | 0 mm | - | - | - |
| 1778039247 | 20.56° C | 34% | - | 0 mm | - | - | - |
| 1778038943 | 20.56° C | 36% | - | 0 mm | - | - | - |
| 1778038336 | 21.11° C | 35% | - | 0 mm | - | - | - |
| 1778037726 | 22.78° C | 32% | - | 0 mm | - | - | - |
| 1778037422 | 23.33° C | 30% | - | 0 mm | - | - | - |
* Rain latest 24 hours (hover to see other rain measurements)
** Current wind speed in m/s (hover to see current wind gust speed)